Terminal Aerodrome Forecast
Issued by NWS

Home | Current Version | Previous Version | Text Only | Print | Product List | Glossary Off
Versions: 1 2 3 4 5 6 7 8 9 10 11 12 13 14 15 16

000
FTUS45 KGGW 301700
TAFSDY
TAF
KSDY 301720Z 3018/3118 VRB06KT P6SM SCT150
     FM301900 30009KT P6SM SCT045
     FM310600 04007KT P6SM FEW010 SCT024
     FM311200 05008KT 6SM -SHSN SCT010 OVC030
     FM311500 05012KT 3SM -SN BKN010 OVC030
      AMD LTD TO CLD VIS AND WIND=

USA.gov is the U.S. government's official web portal to all federal, state and local government web resources and services.